Time;durP1;ratioP1;P1;durP2;ratioP2;P2;SDS_P1;SDS_P2;PMS_P1;PMS_P2;Temp;Humidity;BMP_temperature;BMP_pressure;BME280_temperature;BME280_humidity;BME280_pressure;Samples;Min_cycle;Max_cycle;Signal;HPM_P1;HPM_P2
2021/12/26 00:00:43;;;;;;;;;;;3.20;99.90;;;;;;5113659;28;19981;-55
2021/12/26 00:03:10;;;;;;;;;;;3.10;99.90;;;;;;5116702;28;19969;-56
2021/12/26 00:05:37;;;;;;;;;;;3.20;99.90;;;;;;5116225;28;20014;-55
2021/12/26 00:08:04;;;;;;;;;;;3.20;99.90;;;;;;5116501;28;19977;-55
2021/12/26 00:10:30;;;;;;;;;;;3.30;99.90;;;;;;5116423;28;19920;-55
2021/12/26 00:12:57;;;;;;;;;;;3.20;99.90;;;;;;5116373;28;19919;-55
2021/12/26 00:15:24;;;;;;;;;;;3.20;99.90;;;;;;5115824;28;20000;-52
2021/12/26 00:17:51;;;;;;;;;;;3.20;99.90;;;;;;5116287;28;19923;-55
2021/12/26 00:20:18;;;;;;;;;;;3.20;99.90;;;;;;5116027;28;19927;-52
2021/12/26 00:22:45;;;;;;;;;;;3.20;99.90;;;;;;5116134;28;20014;-52
2021/12/26 00:25:12;;;;;;;;;;;3.20;99.90;;;;;;5104337;28;19927;-56
2021/12/26 00:27:39;;;;;;;;;;;3.20;99.90;;;;;;5097632;28;19920;-52
2021/12/26 00:30:08;;;;;;;;;;;3.20;99.90;;;;;;5104875;28;20208;-54
2021/12/26 00:32:35;;;;;;;;;;;3.20;99.90;;;;;;5110830;28;19978;-55
2021/12/26 00:35:02;;;;;;;;;;;3.20;99.90;;;;;;5115955;28;19924;-55
2021/12/26 00:37:29;;;;;;;;;;;3.20;99.90;;;;;;5115536;28;19920;-55
2021/12/26 00:39:56;;;;;;;;;;;3.20;99.90;;;;;;5115767;28;19919;-56
2021/12/26 00:42:23;;;;;;;;;;;3.20;99.90;;;;;;5097552;28;19920;-55
2021/12/26 00:44:49;;;;;;;;;;;3.20;99.90;;;;;;5115745;28;19923;-56
2021/12/26 00:47:16;;;;;;;;;;;3.20;99.90;;;;;;5114160;28;19939;-56
2021/12/26 00:49:43;;;;;;;;;;;3.30;99.90;;;;;;5115511;28;19920;-56
2021/12/26 00:52:10;;;;;;;;;;;3.30;99.90;;;;;;5097384;28;19920;-56
2021/12/26 00:54:37;;;;;;;;;;;3.30;99.90;;;;;;5115802;28;19931;-55
2021/12/26 00:57:04;;;;;;;;;;;3.30;99.90;;;;;;5115124;28;19920;-53
2021/12/26 00:59:31;;;;;;;;;;;3.30;99.90;;;;;;5114211;28;20367;-56
2021/12/26 01:01:58;;;;;;;;;;;3.30;99.90;;;;;;5113877;28;20322;-54
2021/12/26 01:04:25;;;;;;;;;;;3.30;99.90;;;;;;5115432;28;19928;-55
2021/12/26 01:06:52;;;;;;;;;;;3.30;99.90;;;;;;5096677;28;20272;-54
2021/12/26 01:09:24;;;;;;;;;;;3.30;99.90;;;;;;5115181;28;19972;-52
2021/12/26 01:11:55;;;;;;;;;;;3.30;99.90;;;;;;5096271;28;19928;-55
2021/12/26 01:14:31;;;;;;;;;;;3.30;99.90;;;;;;5096808;28;19920;-55
2021/12/26 01:17:08;;;;;;;;;;;3.30;99.90;;;;;;5114707;28;20299;-53
2021/12/26 01:19:44;;;;;;;;;;;3.30;99.90;;;;;;5096676;28;20431;-55
2021/12/26 01:22:12;;;;;;;;;;;3.20;99.90;;;;;;5096396;28;19920;-55
2021/12/26 01:24:41;;;;;;;;;;;3.30;99.90;;;;;;5096699;28;20435;-55
2021/12/26 01:27:08;;;;;;;;;;;3.30;99.90;;;;;;5114581;28;20295;-55
2021/12/26 01:29:36;;;;;;;;;;;3.30;99.90;;;;;;5096519;28;19926;-54
2021/12/26 01:32:04;;;;;;;;;;;3.30;99.90;;;;;;5113500;28;19969;-54
2021/12/26 01:34:53;;;;;;;;;;;3.30;99.90;;;;;;5114549;28;19959;-53
2021/12/26 01:37:29;;;;;;;;;;;3.20;99.90;;;;;;5113429;28;19924;-53
2021/12/26 01:40:16;;;;;;;;;;;3.20;99.90;;;;;;5082689;28;19949;-56
2021/12/26 01:43:02;;;;;;;;;;;3.10;99.90;;;;;;5096205;28;19928;-53
2021/12/26 01:45:39;;;;;;;;;;;3.10;99.90;;;;;;5096017;28;19920;-55
2021/12/26 01:48:07;;;;;;;;;;;3.10;99.90;;;;;;5113273;28;20355;-54
2021/12/26 01:50:43;;;;;;;;;;;3.20;99.90;;;;;;5096515;28;19945;-55
2021/12/26 01:53:10;;;;;;;;;;;3.20;99.90;;;;;;5113092;28;20402;-55
2021/12/26 01:55:41;;;;;;;;;;;3.20;99.90;;;;;;5094885;28;19964;-54
2021/12/26 01:58:09;;;;;;;;;;;3.20;99.90;;;;;;5096125;28;19966;-53
2021/12/26 02:00:38;;;;;;;;;;;3.20;99.90;;;;;;5095722;28;19954;-54
2021/12/26 02:03:05;;;;;;;;;;;3.20;99.90;;;;;;5112913;28;20387;-55
2021/12/26 02:05:32;;;;;;;;;;;3.10;99.90;;;;;;5095663;28;19919;-56
2021/12/26 02:08:04;;;;;;;;;;;3.10;99.90;;;;;;5095793;28;19924;-52
2021/12/26 02:10:31;;;;;;;;;;;3.00;99.90;;;;;;5096056;28;20307;-56
2021/12/26 02:12:58;;;;;;;;;;;3.00;99.90;;;;;;5113087;28;20439;-54
2021/12/26 02:15:25;;;;;;;;;;;3.00;99.90;;;;;;5113586;28;19930;-55
2021/12/26 02:18:00;;;;;;;;;;;3.00;99.90;;;;;;5114070;28;20372;-54
2021/12/26 02:23:54;;;;;;;;;;;3.00;99.90;;;;;;5076606;28;20383;-56
2021/12/26 02:29:07;;;;;;;;;;;3.10;99.90;;;;;;5112558;28;19968;-56
2021/12/26 02:31:34;;;;;;;;;;;3.10;99.90;;;;;;5095733;28;19920;-55
2021/12/26 02:34:01;;;;;;;;;;;3.10;99.90;;;;;;5112058;28;19941;-55
2021/12/26 02:36:28;;;;;;;;;;;3.10;99.90;;;;;;5095125;28;19958;-56
2021/12/26 02:38:55;;;;;;;;;;;3.10;99.90;;;;;;5095279;28;19919;-55
2021/12/26 02:41:22;;;;;;;;;;;3.10;99.90;;;;;;5113400;28;19972;-54
2021/12/26 02:43:49;;;;;;;;;;;3.10;99.90;;;;;;5112228;28;19919;-55
2021/12/26 02:46:16;;;;;;;;;;;3.10;99.90;;;;;;5094940;28;20392;-56
2021/12/26 02:48:44;;;;;;;;;;;3.00;99.90;;;;;;5094951;28;19924;-55
2021/12/26 02:51:11;;;;;;;;;;;3.00;99.90;;;;;;5095446;28;19920;-55
2021/12/26 02:53:39;;;;;;;;;;;3.00;99.90;;;;;;5095131;28;19965;-55
2021/12/26 02:56:06;;;;;;;;;;;3.00;99.90;;;;;;5112945;28;19919;-53
2021/12/26 02:58:33;;;;;;;;;;;3.00;99.90;;;;;;5112016;28;19978;-53
2021/12/26 03:01:09;;;;;;;;;;;3.00;99.90;;;;;;5113436;28;20311;-56
2021/12/26 03:03:37;;;;;;;;;;;3.00;99.90;;;;;;5094887;28;19924;-55
2021/12/26 03:06:10;;;;;;;;;;;3.10;99.90;;;;;;5111559;28;19923;-52
2021/12/26 03:08:37;;;;;;;;;;;3.00;99.90;;;;;;5094775;28;20131;-55
2021/12/26 03:11:04;;;;;;;;;;;3.00;99.90;;;;;;5095062;28;19997;-55
2021/12/26 03:13:31;;;;;;;;;;;3.00;99.90;;;;;;5111760;28;19926;-54
2021/12/26 03:15:57;;;;;;;;;;;3.00;99.90;;;;;;5094332;28;20387;-56
2021/12/26 03:18:25;;;;;;;;;;;2.90;99.90;;;;;;5094669;28;19919;-54
2021/12/26 03:20:52;;;;;;;;;;;2.80;99.90;;;;;;5112764;28;20376;-54
2021/12/26 03:23:22;;;;;;;;;;;2.70;99.90;;;;;;5094723;28;19920;-55
2021/12/26 03:25:49;;;;;;;;;;;2.60;99.90;;;;;;5111115;28;20023;-55
2021/12/26 03:28:17;;;;;;;;;;;2.70;99.90;;;;;;5094782;28;20390;-55
2021/12/26 03:30:45;;;;;;;;;;;2.80;99.90;;;;;;5111348;28;19968;-54
2021/12/26 03:33:12;;;;;;;;;;;2.90;99.90;;;;;;5094564;28;19920;-54
2021/12/26 03:35:40;;;;;;;;;;;2.90;99.90;;;;;;5093732;28;20010;-51
2021/12/26 03:38:08;;;;;;;;;;;2.90;99.90;;;;;;5094637;28;19988;-52
2021/12/26 03:40:55;;;;;;;;;;;2.90;99.90;;;;;;5098085;28;19934;-54
2021/12/26 03:43:23;;;;;;;;;;;2.90;99.90;;;;;;5094398;28;19920;-54
2021/12/26 03:45:52;;;;;;;;;;;3.00;99.90;;;;;;5110966;28;19943;-56
2021/12/26 03:48:19;;;;;;;;;;;3.00;99.90;;;;;;5111556;28;19959;-52
2021/12/26 03:50:46;;;;;;;;;;;2.90;99.90;;;;;;5111215;28;20010;-54
2021/12/26 03:53:14;;;;;;;;;;;3.00;99.90;;;;;;5094514;28;19998;-55
2021/12/26 03:55:44;;;;;;;;;;;2.90;99.90;;;;;;5112624;28;20355;-54
2021/12/26 03:58:12;;;;;;;;;;;2.90;99.90;;;;;;5094156;28;19919;-53
2021/12/26 04:00:41;;;;;;;;;;;3.00;99.90;;;;;;5094326;28;20383;-54
2021/12/26 04:03:08;;;;;;;;;;;3.00;99.90;;;;;;5094180;28;19923;-55
2021/12/26 04:05:44;;;;;;;;;;;3.00;99.90;;;;;;5110832;28;19924;-55
2021/12/26 04:08:11;;;;;;;;;;;2.90;99.90;;;;;;5094366;28;19920;-55
2021/12/26 04:10:38;;;;;;;;;;;3.00;99.90;;;;;;5094026;28;19959;-54
2021/12/26 04:13:06;;;;;;;;;;;3.00;99.90;;;;;;5094533;28;19927;-56
2021/12/26 04:15:33;;;;;;;;;;;3.00;99.90;;;;;;5093789;28;19953;-56
2021/12/26 04:18:00;;;;;;;;;;;3.00;99.90;;;;;;5111008;28;19955;-55
2021/12/26 04:20:28;;;;;;;;;;;3.00;99.90;;;;;;5100920;22;20300;-57
2021/12/26 04:22:57;;;;;;;;;;;2.90;99.90;;;;;;5050458;28;19924;-57
2021/12/26 04:25:23;;;;;;;;;;;2.90;99.90;;;;;;5050118;28;20433;-57
2021/12/26 04:27:51;;;;;;;;;;;2.90;99.90;;;;;;5067112;28;19928;-58
2021/12/26 04:30:18;;;;;;;;;;;2.90;99.90;;;;;;5039577;28;20057;-57
2021/12/26 04:32:46;;;;;;;;;;;2.90;99.90;;;;;;5036710;28;20004;-57
2021/12/26 04:35:14;;;;;;;;;;;2.90;99.90;;;;;;5010219;28;19939;-57
2021/12/26 04:37:41;;;;;;;;;;;2.80;99.90;;;;;;5010953;28;19921;-57
2021/12/26 04:40:13;;;;;;;;;;;2.80;99.90;;;;;;5010656;28;20353;-58
2021/12/26 04:42:59;;;;;;;;;;;2.80;99.90;;;;;;5011712;28;19968;-57
2021/12/26 04:45:31;;;;;;;;;;;2.80;99.90;;;;;;5010541;28;19929;-58
2021/12/26 04:48:18;;;;;;;;;;;2.80;99.90;;;;;;5012939;28;19921;-56
2021/12/26 04:50:46;;;;;;;;;;;2.80;99.90;;;;;;5013927;28;20348;-57
2021/12/26 04:53:13;;;;;;;;;;;2.70;99.90;;;;;;5030637;28;19928;-57
2021/12/26 04:55:40;;;;;;;;;;;2.70;99.90;;;;;;5013626;28;20389;-57
2021/12/26 04:58:07;;;;;;;;;;;2.70;99.90;;;;;;5014073;28;19952;-57
2021/12/26 05:00:34;;;;;;;;;;;2.70;99.90;;;;;;5013678;28;19925;-58
2021/12/26 05:03:03;;;;;;;;;;;2.70;99.90;;;;;;5015029;28;19921;-56
2021/12/26 05:05:32;;;;;;;;;;;2.70;99.90;;;;;;5013605;28;19921;-55
2021/12/26 05:07:59;;;;;;;;;;;2.70;99.90;;;;;;5030327;28;19929;-56
2021/12/26 05:10:28;;;;;;;;;;;2.60;99.90;;;;;;5013677;28;20347;-58
2021/12/26 05:12:59;;;;;;;;;;;2.70;99.90;;;;;;5015100;28;19925;-56
2021/12/26 05:15:27;;;;;;;;;;;2.60;99.90;;;;;;5014563;28;19928;-58
2021/12/26 05:17:55;;;;;;;;;;;2.70;99.90;;;;;;5013767;28;19921;-57
2021/12/26 05:20:23;;;;;;;;;;;2.60;99.90;;;;;;5013351;28;19925;-58
2021/12/26 05:22:51;;;;;;;;;;;2.60;99.90;;;;;;5013525;28;19925;-57
2021/12/26 05:25:18;;;;;;;;;;;2.60;99.90;;;;;;5013109;28;19921;-58
2021/12/26 05:27:45;;;;;;;;;;;2.60;99.90;;;;;;5014824;28;19922;-58
2021/12/26 05:30:13;;;;;;;;;;;2.60;99.90;;;;;;5014507;28;19952;-58
2021/12/26 05:32:41;;;;;;;;;;;2.70;99.90;;;;;;5029752;28;19956;-57
2021/12/26 05:35:12;;;;;;;;;;;2.60;99.90;;;;;;5013198;28;19975;-57
2021/12/26 05:37:39;;;;;;;;;;;2.70;99.90;;;;;;5014677;28;19971;-57
2021/12/26 05:40:07;;;;;;;;;;;2.70;99.90;;;;;;5029729;28;19921;-58
2021/12/26 05:42:35;;;;;;;;;;;2.70;99.90;;;;;;5029705;28;20024;-57
2021/12/26 05:45:03;;;;;;;;;;;2.70;99.90;;;;;;5029667;28;19975;-58
2021/12/26 05:47:32;;;;;;;;;;;2.70;99.90;;;;;;5012975;28;20353;-57
2021/12/26 05:50:04;;;;;;;;;;;2.70;99.90;;;;;;5029453;28;19975;-58
2021/12/26 05:52:31;;;;;;;;;;;2.70;99.90;;;;;;5013024;28;20270;-58
2021/12/26 05:55:06;;;;;;;;;;;2.70;99.90;;;;;;5029229;28;19921;-58
2021/12/26 05:57:33;;;;;;;;;;;2.70;99.90;;;;;;5029152;28;19929;-58
2021/12/26 06:00:00;;;;;;;;;;;2.50;99.90;;;;;;5012592;28;20027;-58
2021/12/26 06:02:31;;;;;;;;;;;2.50;99.90;;;;;;5013839;28;19927;-57
2021/12/26 06:04:58;;;;;;;;;;;2.50;99.90;;;;;;5014193;28;19921;-57
2021/12/26 06:07:25;;;;;;;;;;;2.50;99.90;;;;;;5012495;28;19956;-58
2021/12/26 06:09:52;;;;;;;;;;;2.50;99.90;;;;;;5029176;28;20008;-57
2021/12/26 06:12:19;;;;;;;;;;;2.50;99.90;;;;;;5012392;28;20378;-58
2021/12/26 06:14:46;;;;;;;;;;;2.50;99.90;;;;;;5012694;28;19922;-56
2021/12/26 06:17:13;;;;;;;;;;;2.50;99.90;;;;;;5012111;28;19921;-57
2021/12/26 06:20:13;;;;;;;;;;;2.50;99.90;;;;;;5013449;28;20363;-57
2021/12/26 06:22:59;;;;;;;;;;;2.40;99.90;;;;;;5013478;28;19928;-56
2021/12/26 06:25:46;;;;;;;;;;;2.40;99.90;;;;;;5009299;28;20028;-57
2021/12/26 06:28:21;;;;;;;;;;;2.40;99.90;;;;;;5012427;28;19921;-57
2021/12/26 06:31:04;;;;;;;;;;;2.40;99.90;;;;;;5012192;28;20020;-58
2021/12/26 06:33:51;;;;;;;;;;;2.40;99.90;;;;;;5013451;28;20386;-57
2021/12/26 06:36:36;;;;;;;;;;;2.40;99.90;;;;;;5013088;28;19971;-57
2021/12/26 06:39:22;;;;;;;;;;;2.50;99.90;;;;;;5013686;28;19975;-57
2021/12/26 06:42:08;;;;;;;;;;;2.50;99.90;;;;;;5013212;28;19928;-57
2021/12/26 06:44:53;;;;;;;;;;;2.50;99.90;;;;;;5013713;28;19944;-57
2021/12/26 06:47:40;;;;;;;;;;;2.50;99.90;;;;;;5013235;28;19921;-57
2021/12/26 06:50:07;;;;;;;;;;;2.40;99.90;;;;;;5028460;28;19925;-57
2021/12/26 06:52:34;;;;;;;;;;;2.40;99.90;;;;;;5013123;28;19991;-58
2021/12/26 06:55:01;;;;;;;;;;;2.30;99.90;;;;;;5013007;28;19926;-57
2021/12/26 06:57:28;;;;;;;;;;;2.20;99.90;;;;;;5012663;28;19921;-56
2021/12/26 06:59:55;;;;;;;;;;;2.10;99.90;;;;;;5012988;28;19925;-55
2021/12/26 07:02:23;;;;;;;;;;;2.20;99.90;;;;;;5030433;28;19921;-57
2021/12/26 07:04:56;;;;;;;;;;;2.20;99.90;;;;;;5031684;28;19928;-55
2021/12/26 07:07:31;;;;;;;;;;;2.20;99.90;;;;;;5031147;28;19925;-57
2021/12/26 07:09:59;;;;;;;;;;;2.20;99.90;;;;;;5030675;28;19928;-57
2021/12/26 07:12:27;;;;;;;;;;;2.20;99.90;;;;;;5031362;28;19924;-58
2021/12/26 07:15:09;;;;;;;;;;;2.20;99.90;;;;;;5031314;28;19964;-56
2021/12/26 07:17:42;;;;;;;;;;;2.20;99.90;;;;;;5031172;28;19925;-57
2021/12/26 07:20:10;;;;;;;;;;;2.30;99.90;;;;;;5031173;28;20369;-57
2021/12/26 07:22:59;;;;;;;;;;;2.30;99.90;;;;;;5032221;28;19999;-56
2021/12/26 07:25:26;;;;;;;;;;;2.40;99.90;;;;;;5030882;28;19952;-57
2021/12/26 07:27:53;;;;;;;;;;;2.40;99.90;;;;;;5031205;28;20333;-58
2021/12/26 07:30:38;;;;;;;;;;;2.30;99.90;;;;;;5032735;28;19928;-56
2021/12/26 07:33:06;;;;;;;;;;;2.40;99.90;;;;;;5047475;28;19928;-57
2021/12/26 07:35:33;;;;;;;;;;;2.40;99.90;;;;;;5030743;28;19924;-57
2021/12/26 07:38:20;;;;;;;;;;;2.40;99.90;;;;;;5032286;28;19963;-57
2021/12/26 07:40:47;;;;;;;;;;;2.50;99.90;;;;;;5031143;28;19933;-56
2021/12/26 07:43:23;;;;;;;;;;;2.50;99.90;;;;;;5030763;28;19956;-57
2021/12/26 07:46:13;;;;;;;;;;;2.50;99.90;;;;;;5031814;28;19971;-57
2021/12/26 07:48:40;;;;;;;;;;;2.60;99.90;;;;;;5031334;28;20372;-56
2021/12/26 07:51:07;;;;;;;;;;;2.70;99.90;;;;;;5031056;28;20297;-57
2021/12/26 07:53:52;;;;;;;;;;;2.80;99.90;;;;;;5032385;28;20015;-56
2021/12/26 07:56:37;;;;;;;;;;;2.80;99.90;;;;;;5031798;28;19928;-57
2021/12/26 07:59:22;;;;;;;;;;;2.70;99.90;;;;;;5032478;28;19928;-56
2021/12/26 08:02:24;;;;;;;;;;;2.70;99.90;;;;;;5031615;28;20034;-57
2021/12/26 08:05:09;;;;;;;;;;;2.70;99.90;;;;;;5031750;28;19944;-56
2021/12/26 08:07:59;;;;;;;;;;;2.80;99.90;;;;;;5032860;28;20308;-57
2021/12/26 08:10:26;;;;;;;;;;;2.80;99.90;;;;;;5047238;28;20356;-58
2021/12/26 08:12:53;;;;;;;;;;;2.80;99.90;;;;;;5030686;28;19925;-57
2021/12/26 08:15:20;;;;;;;;;;;2.80;99.90;;;;;;5030190;28;19921;-57
2021/12/26 08:17:46;;;;;;;;;;;2.90;99.90;;;;;;5032242;28;19927;-58
2021/12/26 08:20:13;;;;;;;;;;;2.90;99.90;;;;;;5031880;28;19921;-57
2021/12/26 08:22:40;;;;;;;;;;;3.00;99.90;;;;;;5034676;28;19928;-57
2021/12/26 08:25:07;;;;;;;;;;;3.10;99.90;;;;;;5035395;28;19921;-58
2021/12/26 08:27:34;;;;;;;;;;;3.20;99.90;;;;;;5035470;28;19975;-56
2021/12/26 08:30:01;;;;;;;;;;;3.20;99.90;;;;;;5035368;28;19928;-57
2021/12/26 08:32:30;;;;;;;;;;;3.30;99.90;;;;;;5035572;28;19983;-57
2021/12/26 08:34:59;;;;;;;;;;;3.30;99.90;;;;;;5035139;28;20389;-61
2021/12/26 08:37:27;;;;;;;;;;;3.30;99.90;;;;;;5033499;28;20438;-61
2021/12/26 08:39:54;;;;;;;;;;;3.40;99.90;;;;;;5034661;28;19925;-60
2021/12/26 08:42:20;;;;;;;;;;;3.50;99.90;;;;;;5053919;28;19920;-63
2021/12/26 08:44:50;;;;;;;;;;;3.60;99.90;;;;;;5054661;28;19925;-62
2021/12/26 08:47:18;;;;;;;;;;;3.60;99.90;;;;;;5054072;28;19928;-62
2021/12/26 08:49:45;;;;;;;;;;;3.70;99.90;;;;;;5054818;28;19967;-62
2021/12/26 08:52:11;;;;;;;;;;;3.80;99.90;;;;;;5054257;28;19921;-62
2021/12/26 08:54:38;;;;;;;;;;;3.80;99.90;;;;;;5054844;28;20335;-62
2021/12/26 08:57:06;;;;;;;;;;;3.90;99.90;;;;;;5053905;28;19970;-62
2021/12/26 08:59:33;;;;;;;;;;;4.00;99.90;;;;;;5054855;28;19921;-61
2021/12/26 09:02:06;;;;;;;;;;;4.10;99.90;;;;;;5053945;28;19928;-62
2021/12/26 09:04:34;;;;;;;;;;;4.10;99.90;;;;;;5054439;28;19920;-62
2021/12/26 09:07:00;;;;;;;;;;;4.00;99.90;;;;;;5053996;28;19979;-62
2021/12/26 09:09:29;;;;;;;;;;;4.00;99.90;;;;;;5052619;28;19921;-62
2021/12/26 09:11:58;;;;;;;;;;;4.00;99.90;;;;;;5030317;28;19980;-62
2021/12/26 09:14:28;;;;;;;;;;;4.00;99.90;;;;;;5033889;28;20389;-62
2021/12/26 09:16:55;;;;;;;;;;;4.00;99.90;;;;;;5033963;28;20360;-62
2021/12/26 09:19:27;;;;;;;;;;;4.00;99.90;;;;;;5033493;28;19967;-62
2021/12/26 09:21:58;;;;;;;;;;;4.00;99.90;;;;;;5034132;28;20328;-62
2021/12/26 09:24:25;;;;;;;;;;;4.10;99.90;;;;;;5033688;28;20084;-62
2021/12/26 09:26:51;;;;;;;;;;;4.10;99.90;;;;;;5033904;28;19921;-62
2021/12/26 09:29:18;;;;;;;;;;;4.10;99.90;;;;;;5033652;28;20008;-62
2021/12/26 09:31:46;;;;;;;;;;;4.10;99.90;;;;;;5034040;28;19929;-62
2021/12/26 09:34:13;;;;;;;;;;;4.00;99.90;;;;;;5033381;28;19921;-62
2021/12/26 09:36:41;;;;;;;;;;;3.90;99.90;;;;;;5033421;28;20286;-62
2021/12/26 09:39:08;;;;;;;;;;;3.90;99.90;;;;;;5033256;28;19925;-62
2021/12/26 09:41:34;;;;;;;;;;;3.90;99.90;;;;;;5033287;28;20262;-62
2021/12/26 09:44:01;;;;;;;;;;;3.90;99.90;;;;;;5033647;28;20336;-62
2021/12/26 09:46:29;;;;;;;;;;;3.90;99.90;;;;;;5032805;28;19931;-62
2021/12/26 09:48:56;;;;;;;;;;;3.90;99.90;;;;;;5033759;28;20028;-62
2021/12/26 09:51:23;;;;;;;;;;;3.90;99.90;;;;;;5032889;28;19921;-62
2021/12/26 09:53:50;;;;;;;;;;;3.90;99.90;;;;;;5033659;28;19921;-62
2021/12/26 09:56:17;;;;;;;;;;;3.90;99.90;;;;;;5032900;28;19960;-62
2021/12/26 09:58:50;;;;;;;;;;;4.00;99.90;;;;;;5033332;28;20313;-62
2021/12/26 10:01:25;;;;;;;;;;;4.10;99.90;;;;;;5033257;28;19921;-62
2021/12/26 10:03:53;;;;;;;;;;;4.20;99.90;;;;;;5033015;28;19928;-62
2021/12/26 10:06:20;;;;;;;;;;;4.30;99.90;;;;;;5033043;28;19960;-62
2021/12/26 10:08:53;;;;;;;;;;;4.30;99.90;;;;;;5032981;28;19933;-62
2021/12/26 10:11:20;;;;;;;;;;;4.40;99.90;;;;;;5033145;28;19952;-62
2021/12/26 10:13:56;;;;;;;;;;;4.40;99.90;;;;;;5032583;28;19967;-62
2021/12/26 10:16:24;;;;;;;;;;;4.50;99.90;;;;;;5032820;28;20626;-62
2021/12/26 10:18:52;;;;;;;;;;;4.50;99.90;;;;;;5032638;28;20019;-62
2021/12/26 10:21:25;;;;;;;;;;;4.50;99.90;;;;;;5072652;22;20026;-60
2021/12/26 10:23:53;;;;;;;;;;;4.50;99.90;;;;;;5067144;28;19920;-60
2021/12/26 10:26:24;;;;;;;;;;;4.50;99.90;;;;;;5061110;28;19974;-60
2021/12/26 10:29:04;;;;;;;;;;;4.50;99.90;;;;;;5052772;28;19924;-60
2021/12/26 10:31:30;;;;;;;;;;;4.60;99.90;;;;;;5064621;28;20023;-60
2021/12/26 10:33:57;;;;;;;;;;;4.60;99.90;;;;;;5072153;28;19989;-60
2021/12/26 10:36:41;;;;;;;;;;;4.60;99.90;;;;;;5051922;28;19921;-60
2021/12/26 10:39:14;;;;;;;;;;;4.50;99.90;;;;;;5051653;28;19981;-60
2021/12/26 10:41:43;;;;;;;;;;;4.60;99.90;;;;;;5053530;28;19921;-59
2021/12/26 10:44:20;;;;;;;;;;;4.60;99.90;;;;;;5071669;28;19985;-60
2021/12/26 10:46:51;;;;;;;;;;;4.70;99.90;;;;;;5068744;28;19926;-59
2021/12/26 10:49:25;;;;;;;;;;;4.80;99.90;;;;;;5067104;28;19924;-59
2021/12/26 10:51:52;;;;;;;;;;;4.90;99.90;;;;;;5070659;28;19962;-59
2021/12/26 10:54:20;;;;;;;;;;;5.10;99.90;;;;;;5071780;28;19920;-59
2021/12/26 10:57:05;;;;;;;;;;;5.20;99.90;;;;;;5071356;28;19920;-59
2021/12/26 10:59:32;;;;;;;;;;;5.20;99.90;;;;;;5070765;28;19932;-59
2021/12/26 11:01:59;;;;;;;;;;;5.20;99.90;;;;;;5071416;28;19967;-61
2021/12/26 11:04:26;;;;;;;;;;;5.30;99.90;;;;;;5071419;28;19920;-59
2021/12/26 11:07:08;;;;;;;;;;;5.40;99.90;;;;;;5071233;28;19966;-59
2021/12/26 11:09:36;;;;;;;;;;;5.50;99.90;;;;;;5070665;28;19981;-61
2021/12/26 11:12:05;;;;;;;;;;;5.50;99.90;;;;;;5058008;28;19924;-61
2021/12/26 11:14:32;;;;;;;;;;;5.40;99.90;;;;;;5054615;28;19970;-59
2021/12/26 11:16:59;;;;;;;;;;;5.40;99.90;;;;;;5063468;28;19920;-59
2021/12/26 11:19:38;;;;;;;;;;;5.30;99.90;;;;;;5071916;28;19950;-62
2021/12/26 11:22:05;;;;;;;;;;;5.20;99.90;;;;;;5052558;28;20368;-59
2021/12/26 11:24:32;;;;;;;;;;;5.30;99.90;;;;;;5071573;28;19920;-59
2021/12/26 11:26:59;;;;;;;;;;;5.30;99.90;;;;;;5071662;28;19927;-61
2021/12/26 11:29:26;;;;;;;;;;;5.30;99.90;;;;;;5071712;28;19924;-60
2021/12/26 11:31:54;;;;;;;;;;;5.30;99.90;;;;;;5071776;28;19920;-59
2021/12/26 11:34:21;;;;;;;;;;;5.40;99.90;;;;;;5071787;28;19950;-59
2021/12/26 11:36:51;;;;;;;;;;;5.40;99.90;;;;;;5065364;28;19920;-59
2021/12/26 11:39:32;;;;;;;;;;;5.40;99.90;;;;;;5050084;28;19920;-59
2021/12/26 11:42:54;;;;;;;;;;;5.30;99.90;;;;;;5064256;28;19927;-61
2021/12/26 11:45:45;;;;;;;;;;;5.30;99.90;;;;;;4970415;28;20372;-61
2021/12/26 11:48:42;;;;;;;;;;;5.30;99.90;;;;;;5071812;28;19926;-61
2021/12/26 11:51:50;;;;;;;;;;;5.30;99.90;;;;;;5071770;28;19927;-61
2021/12/26 11:54:40;;;;;;;;;;;5.50;99.90;;;;;;5040258;28;19927;-61
2021/12/26 11:57:28;;;;;;;;;;;5.50;99.90;;;;;;5055242;28;19942;-61
2021/12/26 12:00:13;;;;;;;;;;;5.60;99.90;;;;;;5075495;28;19951;-61
2021/12/26 12:02:42;;;;;;;;;;;5.60;99.90;;;;;;5071603;28;19920;-60
2021/12/26 12:05:11;;;;;;;;;;;5.70;99.90;;;;;;5075187;28;19971;-61
2021/12/26 12:07:57;;;;;;;;;;;5.60;99.90;;;;;;5075422;28;19921;-61
2021/12/26 12:10:33;;;;;;;;;;;5.60;99.90;;;;;;5075154;28;19920;-61
2021/12/26 12:13:00;;;;;;;;;;;5.50;99.90;;;;;;5075405;28;19920;-61
2021/12/26 12:15:40;;;;;;;;;;;5.50;99.90;;;;;;5075096;28;19928;-61
2021/12/26 12:18:27;;;;;;;;;;;5.60;99.90;;;;;;5071240;28;19920;-58
2021/12/26 12:21:12;;;;;;;;;;;5.60;99.90;;;;;;5057619;28;20627;-61
2021/12/26 12:23:57;;;;;;;;;;;5.70;99.90;;;;;;5056661;28;19956;-61
2021/12/26 12:26:38;;;;;;;;;;;5.80;99.90;;;;;;5056082;28;19928;-60
2021/12/26 12:29:05;;;;;;;;;;;5.90;99.90;;;;;;5057093;28;19921;-60
2021/12/26 12:31:31;;;;;;;;;;;5.90;99.90;;;;;;5056096;28;19920;-60
2021/12/26 12:34:00;;;;;;;;;;;6.00;99.90;;;;;;5057114;28;19927;-60
2021/12/26 12:36:28;;;;;;;;;;;5.80;99.90;;;;;;5055786;28;19928;-60
2021/12/26 12:39:08;;;;;;;;;;;5.80;99.90;;;;;;5056973;28;19928;-60
2021/12/26 12:41:39;;;;;;;;;;;5.70;99.90;;;;;;5056071;28;19920;-60
2021/12/26 12:44:23;;;;;;;;;;;5.60;99.90;;;;;;5056845;28;19927;-60
2021/12/26 12:46:55;;;;;;;;;;;5.50;99.90;;;;;;5055967;28;19921;-60
2021/12/26 12:49:39;;;;;;;;;;;5.30;99.90;;;;;;5055899;28;19928;-59
2021/12/26 12:52:06;;;;;;;;;;;5.30;99.90;;;;;;5056828;28;20014;-60
2021/12/26 12:54:33;;;;;;;;;;;5.20;99.90;;;;;;5055782;28;20434;-60
2021/12/26 12:57:04;;;;;;;;;;;5.20;99.90;;;;;;5056211;28;19924;-60
2021/12/26 12:59:38;;;;;;;;;;;5.10;99.90;;;;;;5059070;28;19925;-60
2021/12/26 13:02:10;;;;;;;;;;;5.10;99.90;;;;;;5068716;28;19965;-60
2021/12/26 13:04:39;;;;;;;;;;;5.00;99.90;;;;;;5067805;28;20023;-61
2021/12/26 13:07:06;;;;;;;;;;;5.00;99.90;;;;;;5056300;28;19925;-60
2021/12/26 13:09:34;;;;;;;;;;;4.90;99.90;;;;;;5054595;28;19928;-61
2021/12/26 13:12:02;;;;;;;;;;;4.90;99.90;;;;;;5056582;28;19968;-60
2021/12/26 13:14:35;;;;;;;;;;;4.90;99.90;;;;;;5055840;28;19920;-61
2021/12/26 13:17:03;;;;;;;;;;;4.90;99.90;;;;;;5055887;28;19920;-60
2021/12/26 13:19:30;;;;;;;;;;;4.90;99.90;;;;;;5055404;28;19925;-61
2021/12/26 13:21:57;;;;;;;;;;;4.80;99.90;;;;;;5056082;28;20385;-61
2021/12/26 13:24:27;;;;;;;;;;;4.80;99.90;;;;;;5055329;28;19920;-61
2021/12/26 13:26:54;;;;;;;;;;;4.80;99.90;;;;;;5055876;28;19928;-61
2021/12/26 13:29:21;;;;;;;;;;;4.80;99.90;;;;;;5058297;28;19981;-60
2021/12/26 13:31:48;;;;;;;;;;;4.80;99.90;;;;;;5072825;28;19946;-61
2021/12/26 13:34:15;;;;;;;;;;;4.80;99.90;;;;;;5066041;28;19966;-61
2021/12/26 13:36:46;;;;;;;;;;;4.80;99.90;;;;;;5073454;28;19967;-60
2021/12/26 13:39:20;;;;;;;;;;;4.80;99.90;;;;;;5073849;28;19963;-61
2021/12/26 13:41:49;;;;;;;;;;;4.80;99.90;;;;;;5073592;28;19920;-61
2021/12/26 13:44:17;;;;;;;;;;;4.80;99.90;;;;;;5072717;28;19920;-61
2021/12/26 13:46:44;;;;;;;;;;;4.80;99.90;;;;;;5055324;28;20335;-61
2021/12/26 13:49:13;;;;;;;;;;;4.80;99.90;;;;;;5073664;28;19931;-60
2021/12/26 13:51:43;;;;;;;;;;;4.80;99.90;;;;;;5073557;28;20686;-61
2021/12/26 13:54:16;;;;;;;;;;;4.80;99.90;;;;;;5073524;28;20377;-60
2021/12/26 13:56:51;;;;;;;;;;;4.80;99.90;;;;;;5069566;28;19921;-61
2021/12/26 13:59:27;;;;;;;;;;;4.80;99.90;;;;;;5072642;28;19921;-60
2021/12/26 14:01:54;;;;;;;;;;;4.80;99.90;;;;;;5073005;28;20373;-60
2021/12/26 14:04:24;;;;;;;;;;;4.80;99.90;;;;;;5073234;28;19925;-60
2021/12/26 14:06:51;;;;;;;;;;;4.80;99.90;;;;;;5072170;28;20019;-60
2021/12/26 14:09:18;;;;;;;;;;;4.70;99.90;;;;;;5072504;28;19956;-60
2021/12/26 14:11:45;;;;;;;;;;;4.70;99.90;;;;;;5068037;28;19924;-60
2021/12/26 14:14:12;;;;;;;;;;;4.70;99.90;;;;;;5066697;28;19942;-60
2021/12/26 14:16:42;;;;;;;;;;;4.70;99.90;;;;;;5071156;28;20309;-60
2021/12/26 14:19:10;;;;;;;;;;;4.70;99.90;;;;;;5071074;28;19920;-60
2021/12/26 14:21:40;;;;;;;;;;;4.70;99.90;;;;;;5070817;28;20323;-60
2021/12/26 14:24:07;;;;;;;;;;;4.70;99.90;;;;;;5070949;28;20019;-60
2021/12/26 14:26:39;;;;;;;;;;;4.70;99.90;;;;;;5071756;28;19956;-60
2021/12/26 14:29:08;;;;;;;;;;;4.80;99.90;;;;;;5072372;28;19920;-60
2021/12/26 14:31:36;;;;;;;;;;;4.70;99.90;;;;;;5072647;28;20372;-60
2021/12/26 14:34:05;;;;;;;;;;;4.70;99.90;;;;;;5072557;28;20016;-60
2021/12/26 14:36:48;;;;;;;;;;;4.70;99.90;;;;;;5072183;28;19982;-60
2021/12/26 14:39:16;;;;;;;;;;;4.70;99.90;;;;;;5072592;28;19920;-60
2021/12/26 14:41:44;;;;;;;;;;;4.70;99.90;;;;;;5072529;28;19920;-60
2021/12/26 14:44:12;;;;;;;;;;;4.70;99.90;;;;;;5072370;28;20406;-61
2021/12/26 14:46:40;;;;;;;;;;;4.70;99.90;;;;;;5072076;28;19928;-60
2021/12/26 14:49:08;;;;;;;;;;;4.70;99.90;;;;;;5072724;28;19974;-60
2021/12/26 14:51:35;;;;;;;;;;;4.70;99.90;;;;;;5072280;28;19993;-61
2021/12/26 14:54:06;;;;;;;;;;;4.70;99.90;;;;;;5072344;28;19981;-60
2021/12/26 14:56:45;;;;;;;;;;;4.70;99.90;;;;;;5071868;28;19951;-61
2021/12/26 14:59:21;;;;;;;;;;;4.70;99.90;;;;;;5071792;28;20423;-60